CYKQ

Waskaganish Airport

Waskaganish, Quebec, Canada
METAR CYKQ 142200Z 24011G17KT 15SM SKC M09/M14 A3035 RMK LAST STFD OBS/NEXT 151400 UTC SLP283
Observed Flight Rules
Nov-14 @ 22:00 UTC (15 hours ago) Visual Flight Rules
Wind Visibility Clouds
240° at 11 knots
 Gusting to 17 knots
15 miles
  • Clear skies
Temperatures Readings
Current -9°C / 16°F
Dewpoint -14°C / 7°F
Humidity 67%
Altimeter 30.35" Hg
Pressure 1028.3 hPa
Elevation 23
METAR CYKQ 142200Z 24011G17KT 15SM SKC M09/M14 A3035 RMK LAST STFD OBS/NEXT 151400 UTC SLP283
Observed Flight Rules
Nov-14 @ 22:00 UTC
(15 hours ago)
VFR
Wind Visibility
240° at 11 knots
 Gusting to 17 knots
15 miles
Clouds
  • Clear skies
Temperature Dewpoint
-9°C / 16°F -14°C / 7°F
Humidity Altimeter Pressure
67% 30.35" Hg 1028.3 hPa